sensor_id;sensor_type;location;lat;lon;timestamp;P1;durP1;ratioP1;P2;durP2;ratioP2
72464;SDS011;60471;52.150;4.508;2022-09-09T00:07:47;18.92;;;5.90;;
72464;SDS011;60471;52.150;4.508;2022-09-09T00:15:25;15.75;;;6.45;;
72464;SDS011;60471;52.150;4.508;2022-09-09T00:18:10;16.45;;;6.28;;
72464;SDS011;60471;52.150;4.508;2022-09-09T00:23:30;12.40;;;6.07;;
72464;SDS011;60471;52.150;4.508;2022-09-09T00:26:31;15.52;;;6.72;;
72464;SDS011;60471;52.150;4.508;2022-09-09T00:31:38;15.27;;;6.63;;
72464;SDS011;60471;52.150;4.508;2022-09-09T00:34:09;18.10;;;7.03;;
72464;SDS011;60471;52.150;4.508;2022-09-09T00:36:43;15.93;;;6.75;;
72464;SDS011;60471;52.150;4.508;2022-09-09T00:44:49;17.65;;;7.20;;
72464;SDS011;60471;52.150;4.508;2022-09-09T00:47:49;15.07;;;7.10;;
72464;SDS011;60471;52.150;4.508;2022-09-09T00:58:52;19.30;;;7.75;;
72464;SDS011;60471;52.150;4.508;2022-09-09T01:01:29;18.83;;;8.63;;
72464;SDS011;60471;52.150;4.508;2022-09-09T01:03:55;19.05;;;8.68;;
72464;SDS011;60471;52.150;4.508;2022-09-09T01:06:34;15.75;;;8.50;;
72464;SDS011;60471;52.150;4.508;2022-09-09T01:09:05;20.23;;;9.65;;
72464;SDS011;60471;52.150;4.508;2022-09-09T01:11:49;19.83;;;9.25;;
72464;SDS011;60471;52.150;4.508;2022-09-09T01:14:35;25.00;;;10.00;;
72464;SDS011;60471;52.150;4.508;2022-09-09T01:22:21;22.48;;;10.38;;
72464;SDS011;60471;52.150;4.508;2022-09-09T01:27:42;22.35;;;11.23;;
72464;SDS011;60471;52.150;4.508;2022-09-09T01:30:17;23.38;;;11.23;;
72464;SDS011;60471;52.150;4.508;2022-09-09T01:32:45;23.00;;;11.65;;
72464;SDS011;60471;52.150;4.508;2022-09-09T01:35:28;27.38;;;11.98;;
72464;SDS011;60471;52.150;4.508;2022-09-09T01:38:04;22.08;;;12.13;;
72464;SDS011;60471;52.150;4.508;2022-09-09T01:40:31;24.90;;;12.23;;
72464;SDS011;60471;52.150;4.508;2022-09-09T01:42:58;20.80;;;11.48;;
72464;SDS011;60471;52.150;4.508;2022-09-09T01:45:24;23.45;;;11.98;;
72464;SDS011;60471;52.150;4.508;2022-09-09T01:47:54;26.23;;;13.02;;
72464;SDS011;60471;52.150;4.508;2022-09-09T01:50:22;28.25;;;12.90;;
72464;SDS011;60471;52.150;4.508;2022-09-09T01:52:50;22.60;;;12.70;;
72464;SDS011;60471;52.150;4.508;2022-09-09T01:55:37;22.65;;;13.23;;
72464;SDS011;60471;52.150;4.508;2022-09-09T01:58:17;25.13;;;13.30;;
72464;SDS011;60471;52.150;4.508;2022-09-09T02:04:11;25.08;;;13.65;;
72464;SDS011;60471;52.150;4.508;2022-09-09T02:06:50;25.13;;;13.27;;
72464;SDS011;60471;52.150;4.508;2022-09-09T02:11:57;26.80;;;13.73;;
72464;SDS011;60471;52.150;4.508;2022-09-09T02:14:47;24.40;;;14.02;;
72464;SDS011;60471;52.150;4.508;2022-09-09T02:17:26;26.42;;;13.63;;
72464;SDS011;60471;52.150;4.508;2022-09-09T02:20:02;27.00;;;13.57;;
72464;SDS011;60471;52.150;4.508;2022-09-09T02:22:39;27.55;;;13.95;;
72464;SDS011;60471;52.150;4.508;2022-09-09T02:25:10;24.27;;;12.77;;
72464;SDS011;60471;52.150;4.508;2022-09-09T02:27:43;25.40;;;13.32;;
72464;SDS011;60471;52.150;4.508;2022-09-09T02:30:13;23.58;;;12.02;;
72464;SDS011;60471;52.150;4.508;2022-09-09T02:32:40;20.88;;;12.13;;
72464;SDS011;60471;52.150;4.508;2022-09-09T02:35:12;19.70;;;11.05;;
72464;SDS011;60471;52.150;4.508;2022-09-09T02:37:42;20.27;;;11.20;;
72464;SDS011;60471;52.150;4.508;2022-09-09T02:40:15;20.55;;;10.82;;
72464;SDS011;60471;52.150;4.508;2022-09-09T02:42:43;20.00;;;10.30;;
72464;SDS011;60471;52.150;4.508;2022-09-09T02:45:13;20.00;;;10.23;;
72464;SDS011;60471;52.150;4.508;2022-09-09T02:47:50;21.83;;;9.48;;
72464;SDS011;60471;52.150;4.508;2022-09-09T02:53:18;20.20;;;9.20;;
72464;SDS011;60471;52.150;4.508;2022-09-09T02:55:55;16.02;;;8.43;;
72464;SDS011;60471;52.150;4.508;2022-09-09T02:58:30;17.55;;;8.07;;
72464;SDS011;60471;52.150;4.508;2022-09-09T03:00:56;15.20;;;7.50;;
72464;SDS011;60471;52.150;4.508;2022-09-09T03:03:23;15.90;;;8.13;;
72464;SDS011;60471;52.150;4.508;2022-09-09T03:05:50;20.23;;;9.35;;
72464;SDS011;60471;52.150;4.508;2022-09-09T03:08:16;15.45;;;7.35;;
72464;SDS011;60471;52.150;4.508;2022-09-09T03:10:42;18.77;;;6.95;;
72464;SDS011;60471;52.150;4.508;2022-09-09T03:13:09;14.43;;;7.20;;
72464;SDS011;60471;52.150;4.508;2022-09-09T03:15:36;19.08;;;7.07;;
72464;SDS011;60471;52.150;4.508;2022-09-09T03:18:03;14.52;;;6.60;;
72464;SDS011;60471;52.150;4.508;2022-09-09T03:20:30;18.92;;;6.88;;
72464;SDS011;60471;52.150;4.508;2022-09-09T03:22:56;14.00;;;6.07;;
72464;SDS011;60471;52.150;4.508;2022-09-09T03:25:24;16.80;;;6.68;;
72464;SDS011;60471;52.150;4.508;2022-09-09T03:27:51;17.70;;;6.70;;
72464;SDS011;60471;52.150;4.508;2022-09-09T03:30:21;14.30;;;6.50;;
72464;SDS011;60471;52.150;4.508;2022-09-09T03:32:49;18.45;;;7.05;;
72464;SDS011;60471;52.150;4.508;2022-09-09T03:35:15;14.15;;;5.97;;
72464;SDS011;60471;52.150;4.508;2022-09-09T03:37:41;13.80;;;5.82;;
72464;SDS011;60471;52.150;4.508;2022-09-09T03:40:08;13.75;;;5.85;;
72464;SDS011;60471;52.150;4.508;2022-09-09T03:42:36;13.90;;;5.68;;
72464;SDS011;60471;52.150;4.508;2022-09-09T03:45:07;14.05;;;5.57;;
72464;SDS011;60471;52.150;4.508;2022-09-09T03:47:36;16.27;;;5.82;;
72464;SDS011;60471;52.150;4.508;2022-09-09T03:50:03;16.42;;;6.45;;
72464;SDS011;60471;52.150;4.508;2022-09-09T03:52:34;16.13;;;5.55;;
72464;SDS011;60471;52.150;4.508;2022-09-09T03:55:06;18.00;;;6.47;;
72464;SDS011;60471;52.150;4.508;2022-09-09T03:57:34;17.33;;;7.00;;
72464;SDS011;60471;52.150;4.508;2022-09-09T04:00:05;18.75;;;6.75;;
72464;SDS011;60471;52.150;4.508;2022-09-09T04:02:33;18.13;;;7.28;;
72464;SDS011;60471;52.150;4.508;2022-09-09T04:04:59;16.23;;;6.88;;
72464;SDS011;60471;52.150;4.508;2022-09-09T04:07:26;16.13;;;7.53;;
72464;SDS011;60471;52.150;4.508;2022-09-09T04:09:54;18.30;;;7.18;;
72464;SDS011;60471;52.150;4.508;2022-09-09T04:12:20;14.13;;;7.07;;
72464;SDS011;60471;52.150;4.508;2022-09-09T04:14:48;13.65;;;6.75;;
72464;SDS011;60471;52.150;4.508;2022-09-09T04:17:14;16.67;;;6.47;;
72464;SDS011;60471;52.150;4.508;2022-09-09T04:19:40;14.27;;;6.50;;
72464;SDS011;60471;52.150;4.508;2022-09-09T04:22:07;16.88;;;6.22;;
72464;SDS011;60471;52.150;4.508;2022-09-09T04:24:34;19.20;;;6.70;;
72464;SDS011;60471;52.150;4.508;2022-09-09T04:27:00;17.88;;;6.75;;
72464;SDS011;60471;52.150;4.508;2022-09-09T04:29:27;18.13;;;6.05;;
72464;SDS011;60471;52.150;4.508;2022-09-09T04:31:53;18.60;;;6.22;;
72464;SDS011;60471;52.150;4.508;2022-09-09T04:34:19;16.33;;;5.88;;
72464;SDS011;60471;52.150;4.508;2022-09-09T04:36:45;14.88;;;5.78;;
72464;SDS011;60471;52.150;4.508;2022-09-09T04:39:11;17.50;;;6.32;;
72464;SDS011;60471;52.150;4.508;2022-09-09T04:41:38;14.23;;;5.72;;
72464;SDS011;60471;52.150;4.508;2022-09-09T04:44:04;14.70;;;5.50;;
72464;SDS011;60471;52.150;4.508;2022-09-09T04:46:30;19.25;;;5.97;;
72464;SDS011;60471;52.150;4.508;2022-09-09T04:48:57;13.30;;;5.88;;
72464;SDS011;60471;52.150;4.508;2022-09-09T04:51:23;18.30;;;6.32;;
72464;SDS011;60471;52.150;4.508;2022-09-09T04:53:49;15.23;;;5.38;;
72464;SDS011;60471;52.150;4.508;2022-09-09T04:56:17;14.52;;;5.22;;
72464;SDS011;60471;52.150;4.508;2022-09-09T04:58:43;15.35;;;6.20;;
72464;SDS011;60471;52.150;4.508;2022-09-09T05:03:46;15.50;;;4.55;;
72464;SDS011;60471;52.150;4.508;2022-09-09T05:06:14;16.98;;;4.43;;
72464;SDS011;60471;52.150;4.508;2022-09-09T05:08:46;15.98;;;4.50;;
72464;SDS011;60471;52.150;4.508;2022-09-09T05:11:23;16.08;;;6.32;;
72464;SDS011;60471;52.150;4.508;2022-09-09T05:13:52;17.40;;;4.13;;
72464;SDS011;60471;52.150;4.508;2022-09-09T05:16:20;18.15;;;4.38;;
72464;SDS011;60471;52.150;4.508;2022-09-09T05:18:47;15.35;;;4.20;;
72464;SDS011;60471;52.150;4.508;2022-09-09T05:21:13;11.90;;;4.70;;
72464;SDS011;60471;52.150;4.508;2022-09-09T05:23:42;12.40;;;4.20;;
72464;SDS011;60471;52.150;4.508;2022-09-09T05:26:10;15.00;;;3.65;;
72464;SDS011;60471;52.150;4.508;2022-09-09T05:31:07;14.27;;;3.85;;
72464;SDS011;60471;52.150;4.508;2022-09-09T05:33:38;15.97;;;3.73;;
72464;SDS011;60471;52.150;4.508;2022-09-09T05:36:07;11.57;;;3.38;;
72464;SDS011;60471;52.150;4.508;2022-09-09T05:38:40;14.48;;;4.57;;
72464;SDS011;60471;52.150;4.508;2022-09-09T05:41:07;15.77;;;4.38;;
72464;SDS011;60471;52.150;4.508;2022-09-09T05:43:37;14.70;;;5.00;;
72464;SDS011;60471;52.150;4.508;2022-09-09T05:46:05;18.20;;;4.70;;
72464;SDS011;60471;52.150;4.508;2022-09-09T05:48:40;16.48;;;4.32;;
72464;SDS011;60471;52.150;4.508;2022-09-09T05:51:10;12.43;;;3.40;;
72464;SDS011;60471;52.150;4.508;2022-09-09T05:53:38;13.13;;;3.88;;
72464;SDS011;60471;52.150;4.508;2022-09-09T05:56:06;14.25;;;4.45;;
72464;SDS011;60471;52.150;4.508;2022-09-09T05:58:38;15.18;;;4.05;;
72464;SDS011;60471;52.150;4.508;2022-09-09T06:01:10;12.67;;;3.83;;
72464;SDS011;60471;52.150;4.508;2022-09-09T06:03:41;15.13;;;4.00;;
72464;SDS011;60471;52.150;4.508;2022-09-09T06:06:10;13.02;;;3.90;;
72464;SDS011;60471;52.150;4.508;2022-09-09T06:08:40;11.98;;;3.80;;
72464;SDS011;60471;52.150;4.508;2022-09-09T06:11:13;17.70;;;4.53;;
72464;SDS011;60471;52.150;4.508;2022-09-09T06:13:45;15.18;;;3.90;;
72464;SDS011;60471;52.150;4.508;2022-09-09T06:16:14;19.80;;;3.60;;
72464;SDS011;60471;52.150;4.508;2022-09-09T06:18:43;16.67;;;3.80;;
72464;SDS011;60471;52.150;4.508;2022-09-09T06:21:20;17.35;;;3.42;;
72464;SDS011;60471;52.150;4.508;2022-09-09T06:23:54;16.42;;;3.40;;
72464;SDS011;60471;52.150;4.508;2022-09-09T06:26:22;13.52;;;3.35;;
72464;SDS011;60471;52.150;4.508;2022-09-09T06:28:55;14.77;;;3.38;;
72464;SDS011;60471;52.150;4.508;2022-09-09T06:31:24;11.68;;;2.85;;
72464;SDS011;60471;52.150;4.508;2022-09-09T06:36:24;14.38;;;3.58;;
72464;SDS011;60471;52.150;4.508;2022-09-09T06:39:03;13.48;;;3.03;;
72464;SDS011;60471;52.150;4.508;2022-09-09T06:41:31;18.50;;;3.78;;
72464;SDS011;60471;52.150;4.508;2022-09-09T06:43:59;15.50;;;3.40;;
72464;SDS011;60471;52.150;4.508;2022-09-09T06:46:27;20.25;;;3.88;;
72464;SDS011;60471;52.150;4.508;2022-09-09T06:48:58;16.42;;;3.80;;
72464;SDS011;60471;52.150;4.508;2022-09-09T06:51:26;16.90;;;4.25;;
72464;SDS011;60471;52.150;4.508;2022-09-09T06:53:57;12.48;;;3.78;;
72464;SDS011;60471;52.150;4.508;2022-09-09T06:56:26;15.90;;;4.07;;
72464;SDS011;60471;52.150;4.508;2022-09-09T06:59:07;19.48;;;4.07;;
72464;SDS011;60471;52.150;4.508;2022-09-09T07:01:36;14.18;;;4.40;;
72464;SDS011;60471;52.150;4.508;2022-09-09T07:04:06;12.88;;;3.63;;
72464;SDS011;60471;52.150;4.508;2022-09-09T07:06:35;14.40;;;3.58;;
72464;SDS011;60471;52.150;4.508;2022-09-09T07:09:05;16.45;;;6.75;;
72464;SDS011;60471;52.150;4.508;2022-09-09T07:11:38;14.02;;;4.63;;
72464;SDS011;60471;52.150;4.508;2022-09-09T07:14:08;17.02;;;4.40;;
72464;SDS011;60471;52.150;4.508;2022-09-09T07:16:35;12.82;;;3.72;;
72464;SDS011;60471;52.150;4.508;2022-09-09T07:19:03;16.58;;;3.70;;
72464;SDS011;60471;52.150;4.508;2022-09-09T07:21:30;15.50;;;4.75;;
72464;SDS011;60471;52.150;4.508;2022-09-09T07:23:59;16.52;;;4.97;;
72464;SDS011;60471;52.150;4.508;2022-09-09T07:26:27;17.17;;;4.45;;
72464;SDS011;60471;52.150;4.508;2022-09-09T07:28:56;16.60;;;4.65;;
72464;SDS011;60471;52.150;4.508;2022-09-09T07:31:27;14.50;;;4.85;;
72464;SDS011;60471;52.150;4.508;2022-09-09T07:34:02;15.00;;;4.30;;
72464;SDS011;60471;52.150;4.508;2022-09-09T07:36:30;14.02;;;4.55;;
72464;SDS011;60471;52.150;4.508;2022-09-09T07:39:01;17.75;;;4.15;;
72464;SDS011;60471;52.150;4.508;2022-09-09T07:41:34;14.82;;;4.30;;
72464;SDS011;60471;52.150;4.508;2022-09-09T07:44:11;15.65;;;5.07;;
72464;SDS011;60471;52.150;4.508;2022-09-09T07:46:43;14.35;;;4.30;;
72464;SDS011;60471;52.150;4.508;2022-09-09T07:49:11;16.60;;;4.57;;
72464;SDS011;60471;52.150;4.508;2022-09-09T07:51:39;12.05;;;4.40;;
72464;SDS011;60471;52.150;4.508;2022-09-09T07:54:09;19.75;;;4.80;;
72464;SDS011;60471;52.150;4.508;2022-09-09T07:56:39;15.07;;;4.55;;
72464;SDS011;60471;52.150;4.508;2022-09-09T07:59:07;12.38;;;5.47;;
72464;SDS011;60471;52.150;4.508;2022-09-09T08:01:38;17.55;;;5.45;;
72464;SDS011;60471;52.150;4.508;2022-09-09T08:04:08;12.70;;;4.32;;
72464;SDS011;60471;52.150;4.508;2022-09-09T08:06:41;13.85;;;4.93;;
72464;SDS011;60471;52.150;4.508;2022-09-09T08:09:14;23.88;;;9.23;;
72464;SDS011;60471;52.150;4.508;2022-09-09T08:11:41;15.05;;;5.28;;
72464;SDS011;60471;52.150;4.508;2022-09-09T08:14:09;10.93;;;4.28;;
72464;SDS011;60471;52.150;4.508;2022-09-09T08:16:38;14.65;;;4.97;;
72464;SDS011;60471;52.150;4.508;2022-09-09T08:19:08;14.50;;;4.93;;
72464;SDS011;60471;52.150;4.508;2022-09-09T08:21:35;15.23;;;5.07;;
72464;SDS011;60471;52.150;4.508;2022-09-09T08:24:06;16.95;;;4.30;;
72464;SDS011;60471;52.150;4.508;2022-09-09T08:26:37;17.27;;;4.32;;
72464;SDS011;60471;52.150;4.508;2022-09-09T08:29:13;14.98;;;4.68;;
72464;SDS011;60471;52.150;4.508;2022-09-09T08:31:44;12.57;;;3.53;;
72464;SDS011;60471;52.150;4.508;2022-09-09T08:34:13;14.43;;;4.70;;
72464;SDS011;60471;52.150;4.508;2022-09-09T08:36:41;16.95;;;4.10;;
72464;SDS011;60471;52.150;4.508;2022-09-09T08:39:10;15.65;;;4.20;;
72464;SDS011;60471;52.150;4.508;2022-09-09T08:50:34;12.38;;;3.72;;
72464;SDS011;60471;52.150;4.508;2022-09-09T08:56:08;11.90;;;4.22;;
72464;SDS011;60471;52.150;4.508;2022-09-09T08:58:45;16.75;;;4.05;;
72464;SDS011;60471;52.150;4.508;2022-09-09T09:01:28;13.32;;;3.58;;
72464;SDS011;60471;52.150;4.508;2022-09-09T09:09:55;12.55;;;3.70;;
72464;SDS011;60471;52.150;4.508;2022-09-09T09:12:45;14.68;;;3.92;;
72464;SDS011;60471;52.150;4.508;2022-09-09T09:15:21;15.60;;;3.90;;
72464;SDS011;60471;52.150;4.508;2022-09-09T09:17:52;15.93;;;3.60;;
72464;SDS011;60471;52.150;4.508;2022-09-09T09:20:21;18.13;;;4.50;;
72464;SDS011;60471;52.150;4.508;2022-09-09T09:23:16;19.08;;;4.47;;
72464;SDS011;60471;52.150;4.508;2022-09-09T09:25:56;17.17;;;5.50;;
72464;SDS011;60471;52.150;4.508;2022-09-09T09:28:28;20.92;;;6.00;;
72464;SDS011;60471;52.150;4.508;2022-09-09T09:31:11;11.93;;;5.32;;
72464;SDS011;60471;52.150;4.508;2022-09-09T09:36:19;17.52;;;6.00;;
72464;SDS011;60471;52.150;4.508;2022-09-09T09:39:26;16.75;;;5.78;;
72464;SDS011;60471;52.150;4.508;2022-09-09T09:41:55;16.85;;;6.13;;
72464;SDS011;60471;52.150;4.508;2022-09-09T09:49:33;15.48;;;5.40;;
72464;SDS011;60471;52.150;4.508;2022-09-09T09:52:00;17.30;;;4.97;;
72464;SDS011;60471;52.150;4.508;2022-09-09T09:54:29;16.60;;;5.80;;
72464;SDS011;60471;52.150;4.508;2022-09-09T09:57:10;16.05;;;5.95;;
72464;SDS011;60471;52.150;4.508;2022-09-09T09:59:40;15.63;;;5.55;;
72464;SDS011;60471;52.150;4.508;2022-09-09T10:02:24;16.20;;;5.55;;
72464;SDS011;60471;52.150;4.508;2022-09-09T10:05:06;16.80;;;5.63;;
72464;SDS011;60471;52.150;4.508;2022-09-09T10:07:39;15.70;;;5.70;;
72464;SDS011;60471;52.150;4.508;2022-09-09T10:10:08;14.73;;;5.70;;
72464;SDS011;60471;52.150;4.508;2022-09-09T10:15:56;13.18;;;5.10;;
72464;SDS011;60471;52.150;4.508;2022-09-09T10:21:24;14.10;;;5.60;;
72464;SDS011;60471;52.150;4.508;2022-09-09T10:24:07;13.40;;;4.65;;
72464;SDS011;60471;52.150;4.508;2022-09-09T10:33:08;14.25;;;4.93;;
72464;SDS011;60471;52.150;4.508;2022-09-09T10:35:52;15.05;;;5.18;;
72464;SDS011;60471;52.150;4.508;2022-09-09T10:38:30;18.23;;;5.13;;
72464;SDS011;60471;52.150;4.508;2022-09-09T10:41:12;15.27;;;5.30;;
72464;SDS011;60471;52.150;4.508;2022-09-09T10:43:50;15.82;;;5.20;;
72464;SDS011;60471;52.150;4.508;2022-09-09T10:56:15;14.20;;;4.55;;
72464;SDS011;60471;52.150;4.508;2022-09-09T11:01:19;11.00;;;3.50;;
72464;SDS011;60471;52.150;4.508;2022-09-09T11:03:53;10.63;;;3.42;;
72464;SDS011;60471;52.150;4.508;2022-09-09T11:06:30;13.32;;;3.08;;
72464;SDS011;60471;52.150;4.508;2022-09-09T11:09:08;15.90;;;3.50;;
72464;SDS011;60471;52.150;4.508;2022-09-09T11:11:56;13.80;;;3.67;;
72464;SDS011;60471;52.150;4.508;2022-09-09T11:14:32;13.13;;;3.08;;
72464;SDS011;60471;52.150;4.508;2022-09-09T11:17:18;9.82;;;2.92;;
72464;SDS011;60471;52.150;4.508;2022-09-09T11:19:48;14.02;;;2.80;;
72464;SDS011;60471;52.150;4.508;2022-09-09T11:25:14;9.35;;;2.47;;
72464;SDS011;60471;52.150;4.508;2022-09-09T11:36:35;12.48;;;3.17;;
72464;SDS011;60471;52.150;4.508;2022-09-09T11:44:37;10.70;;;3.08;;
72464;SDS011;60471;52.150;4.508;2022-09-09T11:47:14;8.27;;;3.53;;
72464;SDS011;60471;52.150;4.508;2022-09-09T11:52:41;14.93;;;4.35;;
72464;SDS011;60471;52.150;4.508;2022-09-09T11:57:58;26.20;;;6.72;;
72464;SDS011;60471;52.150;4.508;2022-09-09T12:00:38;19.35;;;6.72;;
72464;SDS011;60471;52.150;4.508;2022-09-09T12:05:57;20.13;;;7.72;;
72464;SDS011;60471;52.150;4.508;2022-09-09T12:08:34;53.38;;;35.25;;
72464;SDS011;60471;52.150;4.508;2022-09-09T12:11:02;21.92;;;7.25;;
72464;SDS011;60471;52.150;4.508;2022-09-09T12:13:30;16.27;;;5.43;;
72464;SDS011;60471;52.150;4.508;2022-09-09T12:15:58;16.70;;;5.75;;
72464;SDS011;60471;52.150;4.508;2022-09-09T12:24:03;9.80;;;3.30;;
72464;SDS011;60471;52.150;4.508;2022-09-09T12:26:43;10.32;;;3.28;;
72464;SDS011;60471;52.150;4.508;2022-09-09T12:29:31;12.88;;;3.03;;
72464;SDS011;60471;52.150;4.508;2022-09-09T12:32:26;11.73;;;3.72;;
72464;SDS011;60471;52.150;4.508;2022-09-09T12:37:58;14.68;;;4.72;;
72464;SDS011;60471;52.150;4.508;2022-09-09T12:40:29;12.52;;;3.92;;
72464;SDS011;60471;52.150;4.508;2022-09-09T12:43:18;13.38;;;4.47;;
72464;SDS011;60471;52.150;4.508;2022-09-09T12:45:48;13.25;;;4.85;;
72464;SDS011;60471;52.150;4.508;2022-09-09T12:48:26;12.90;;;4.13;;
72464;SDS011;60471;52.150;4.508;2022-09-09T12:50:59;14.20;;;4.25;;
72464;SDS011;60471;52.150;4.508;2022-09-09T12:53:30;13.02;;;4.13;;
72464;SDS011;60471;52.150;4.508;2022-09-09T12:56:04;11.00;;;3.90;;
72464;SDS011;60471;52.150;4.508;2022-09-09T12:58:36;10.07;;;3.38;;
72464;SDS011;60471;52.150;4.508;2022-09-09T13:01:04;8.98;;;3.22;;
72464;SDS011;60471;52.150;4.508;2022-09-09T13:03:32;11.27;;;3.40;;
72464;SDS011;60471;52.150;4.508;2022-09-09T13:06:12;9.85;;;3.20;;
72464;SDS011;60471;52.150;4.508;2022-09-09T13:08:48;9.32;;;2.85;;
72464;SDS011;60471;52.150;4.508;2022-09-09T13:11:18;11.45;;;3.00;;
72464;SDS011;60471;52.150;4.508;2022-09-09T13:13:54;10.55;;;3.05;;
72464;SDS011;60471;52.150;4.508;2022-09-09T13:16:26;13.45;;;3.78;;
72464;SDS011;60471;52.150;4.508;2022-09-09T13:18:59;8.20;;;3.17;;
72464;SDS011;60471;52.150;4.508;2022-09-09T13:21:33;10.77;;;3.65;;
72464;SDS011;60471;52.150;4.508;2022-09-09T13:24:04;15.10;;;3.25;;
72464;SDS011;60471;52.150;4.508;2022-09-09T13:26:56;10.18;;;3.03;;
72464;SDS011;60471;52.150;4.508;2022-09-09T13:29:27;13.80;;;2.95;;
72464;SDS011;60471;52.150;4.508;2022-09-09T13:32:05;9.32;;;3.13;;
72464;SDS011;60471;52.150;4.508;2022-09-09T13:34:50;13.45;;;3.65;;
72464;SDS011;60471;52.150;4.508;2022-09-09T13:40:06;9.95;;;3.38;;
72464;SDS011;60471;52.150;4.508;2022-09-09T13:42:47;14.98;;;3.63;;
72464;SDS011;60471;52.150;4.508;2022-09-09T13:45:20;9.70;;;3.33;;
72464;SDS011;60471;52.150;4.508;2022-09-09T13:47:52;10.82;;;3.13;;
72464;SDS011;60471;52.150;4.508;2022-09-09T13:50:22;12.38;;;3.10;;
72464;SDS011;60471;52.150;4.508;2022-09-09T13:52:54;9.95;;;3.15;;
72464;SDS011;60471;52.150;4.508;2022-09-09T13:57:54;10.48;;;3.08;;
72464;SDS011;60471;52.150;4.508;2022-09-09T14:00:26;12.35;;;2.80;;
72464;SDS011;60471;52.150;4.508;2022-09-09T14:02:55;10.00;;;2.22;;
72464;SDS011;60471;52.150;4.508;2022-09-09T14:05:22;6.57;;;1.40;;
72464;SDS011;60471;52.150;4.508;2022-09-09T14:07:48;6.10;;;1.20;;
72464;SDS011;60471;52.150;4.508;2022-09-09T14:10:15;3.70;;;0.90;;
72464;SDS011;60471;52.150;4.508;2022-09-09T14:12:42;7.15;;;1.15;;
72464;SDS011;60471;52.150;4.508;2022-09-09T14:15:09;5.25;;;1.50;;
72464;SDS011;60471;52.150;4.508;2022-09-09T14:17:37;18.25;;;8.57;;
72464;SDS011;60471;52.150;4.508;2022-09-09T14:20:04;5.82;;;1.20;;
72464;SDS011;60471;52.150;4.508;2022-09-09T14:22:34;5.10;;;1.20;;
72464;SDS011;60471;52.150;4.508;2022-09-09T14:25:02;5.28;;;1.25;;
72464;SDS011;60471;52.150;4.508;2022-09-09T14:27:29;6.07;;;1.23;;
72464;SDS011;60471;52.150;4.508;2022-09-09T14:29:56;5.22;;;1.27;;
72464;SDS011;60471;52.150;4.508;2022-09-09T14:32:23;7.90;;;1.58;;
72464;SDS011;60471;52.150;4.508;2022-09-09T14:34:49;5.25;;;1.40;;
72464;SDS011;60471;52.150;4.508;2022-09-09T14:37:16;8.70;;;1.48;;
72464;SDS011;60471;52.150;4.508;2022-09-09T14:39:43;8.15;;;1.80;;
72464;SDS011;60471;52.150;4.508;2022-09-09T14:42:10;8.18;;;1.52;;
72464;SDS011;60471;52.150;4.508;2022-09-09T14:44:37;6.28;;;1.40;;
72464;SDS011;60471;52.150;4.508;2022-09-09T14:47:07;8.77;;;1.52;;
72464;SDS011;60471;52.150;4.508;2022-09-09T14:49:34;7.03;;;1.45;;
72464;SDS011;60471;52.150;4.508;2022-09-09T14:52:01;7.55;;;1.58;;
72464;SDS011;60471;52.150;4.508;2022-09-09T14:54:28;7.60;;;1.50;;
72464;SDS011;60471;52.150;4.508;2022-09-09T14:56:54;9.35;;;1.77;;
72464;SDS011;60471;52.150;4.508;2022-09-09T14:59:22;9.07;;;1.80;;
72464;SDS011;60471;52.150;4.508;2022-09-09T15:01:49;11.80;;;1.77;;
72464;SDS011;60471;52.150;4.508;2022-09-09T15:04:15;13.00;;;2.28;;
72464;SDS011;60471;52.150;4.508;2022-09-09T15:06:42;12.82;;;2.35;;
72464;SDS011;60471;52.150;4.508;2022-09-09T15:09:12;15.88;;;4.95;;
72464;SDS011;60471;52.150;4.508;2022-09-09T15:11:38;9.80;;;2.00;;
72464;SDS011;60471;52.150;4.508;2022-09-09T15:14:06;12.77;;;2.05;;
72464;SDS011;60471;52.150;4.508;2022-09-09T15:16:34;9.27;;;1.92;;
72464;SDS011;60471;52.150;4.508;2022-09-09T15:19:02;14.45;;;2.30;;
72464;SDS011;60471;52.150;4.508;2022-09-09T15:21:33;12.23;;;2.28;;
72464;SDS011;60471;52.150;4.508;2022-09-09T15:24:01;12.98;;;2.30;;
72464;SDS011;60471;52.150;4.508;2022-09-09T15:26:30;9.88;;;2.13;;
72464;SDS011;60471;52.150;4.508;2022-09-09T15:28:56;12.60;;;2.10;;
72464;SDS011;60471;52.150;4.508;2022-09-09T15:31:26;10.00;;;2.28;;
72464;SDS011;60471;52.150;4.508;2022-09-09T15:33:57;12.75;;;2.22;;
72464;SDS011;60471;52.150;4.508;2022-09-09T15:36:27;12.68;;;1.95;;
72464;SDS011;60471;52.150;4.508;2022-09-09T15:39:02;12.95;;;3.72;;
72464;SDS011;60471;52.150;4.508;2022-09-09T15:41:30;10.32;;;1.90;;
72464;SDS011;60471;52.150;4.508;2022-09-09T15:43:57;10.18;;;1.95;;
72464;SDS011;60471;52.150;4.508;2022-09-09T15:46:31;10.98;;;2.35;;
72464;SDS011;60471;52.150;4.508;2022-09-09T15:49:09;10.23;;;1.63;;
72464;SDS011;60471;52.150;4.508;2022-09-09T15:51:38;8.57;;;1.52;;
72464;SDS011;60471;52.150;4.508;2022-09-09T15:54:10;10.55;;;2.45;;
72464;SDS011;60471;52.150;4.508;2022-09-09T15:56:39;9.60;;;3.17;;
72464;SDS011;60471;52.150;4.508;2022-09-09T15:59:06;6.28;;;1.40;;
72464;SDS011;60471;52.150;4.508;2022-09-09T16:01:33;7.40;;;1.90;;
72464;SDS011;60471;52.150;4.508;2022-09-09T16:04:00;9.50;;;1.98;;
72464;SDS011;60471;52.150;4.508;2022-09-09T16:06:27;6.35;;;1.45;;
72464;SDS011;60471;52.150;4.508;2022-09-09T16:08:55;7.53;;;1.60;;
72464;SDS011;60471;52.150;4.508;2022-09-09T16:13:53;8.88;;;1.48;;
72464;SDS011;60471;52.150;4.508;2022-09-09T16:16:22;5.63;;;1.30;;
72464;SDS011;60471;52.150;4.508;2022-09-09T16:18:52;8.18;;;1.80;;
72464;SDS011;60471;52.150;4.508;2022-09-09T16:21:22;8.57;;;1.23;;
72464;SDS011;60471;52.150;4.508;2022-09-09T16:23:52;8.35;;;1.60;;
72464;SDS011;60471;52.150;4.508;2022-09-09T16:26:19;9.70;;;1.83;;
72464;SDS011;60471;52.150;4.508;2022-09-09T16:28:45;9.43;;;2.03;;
72464;SDS011;60471;52.150;4.508;2022-09-09T16:31:14;9.05;;;2.35;;
72464;SDS011;60471;52.150;4.508;2022-09-09T16:33:46;8.05;;;2.15;;
72464;SDS011;60471;52.150;4.508;2022-09-09T16:36:15;9.57;;;2.25;;
72464;SDS011;60471;52.150;4.508;2022-09-09T16:38:53;8.80;;;2.92;;
72464;SDS011;60471;52.150;4.508;2022-09-09T16:41:21;13.33;;;3.03;;
72464;SDS011;60471;52.150;4.508;2022-09-09T16:43:47;10.63;;;3.70;;
72464;SDS011;60471;52.150;4.508;2022-09-09T16:48:47;17.55;;;3.22;;
72464;SDS011;60471;52.150;4.508;2022-09-09T16:54:00;11.60;;;3.95;;
72464;SDS011;60471;52.150;4.508;2022-09-09T16:56:32;15.05;;;4.57;;
72464;SDS011;60471;52.150;4.508;2022-09-09T16:59:03;14.45;;;4.97;;
72464;SDS011;60471;52.150;4.508;2022-09-09T17:01:35;13.20;;;5.65;;
72464;SDS011;60471;52.150;4.508;2022-09-09T17:04:05;15.43;;;5.57;;
72464;SDS011;60471;52.150;4.508;2022-09-09T17:06:38;16.83;;;5.50;;
72464;SDS011;60471;52.150;4.508;2022-09-09T17:09:08;13.55;;;5.55;;
72464;SDS011;60471;52.150;4.508;2022-09-09T17:11:37;15.27;;;5.80;;
72464;SDS011;60471;52.150;4.508;2022-09-09T17:14:05;16.33;;;6.30;;
72464;SDS011;60471;52.150;4.508;2022-09-09T17:16:35;15.95;;;6.45;;
72464;SDS011;60471;52.150;4.508;2022-09-09T17:19:02;15.60;;;6.35;;
72464;SDS011;60471;52.150;4.508;2022-09-09T17:21:30;20.27;;;6.35;;
72464;SDS011;60471;52.150;4.508;2022-09-09T17:23:58;19.77;;;7.60;;
72464;SDS011;60471;52.150;4.508;2022-09-09T17:26:26;29.40;;;8.52;;
72464;SDS011;60471;52.150;4.508;2022-09-09T17:28:56;19.83;;;10.05;;
72464;SDS011;60471;52.150;4.508;2022-09-09T17:31:23;17.73;;;7.93;;
72464;SDS011;60471;52.150;4.508;2022-09-09T17:33:51;20.50;;;7.95;;